sensor_id;sensor_type;location;lat;lon;timestamp;P1;durP1;ratioP1;P2;durP2;ratioP2
1382;SDS011;685;47.196;11.880;2023-08-12T00:00:23;6.17;;;2.43;;
1382;SDS011;685;47.196;11.880;2023-08-12T00:02:50;3.87;;;1.90;;
1382;SDS011;685;47.196;11.880;2023-08-12T00:05:19;3.53;;;2.13;;
1382;SDS011;685;47.196;11.880;2023-08-12T00:07:47;6.13;;;2.23;;
1382;SDS011;685;47.196;11.880;2023-08-12T00:10:15;3.40;;;2.33;;
1382;SDS011;685;47.196;11.880;2023-08-12T00:12:42;3.67;;;1.80;;
1382;SDS011;685;47.196;11.880;2023-08-12T00:15:09;4.63;;;2.10;;
1382;SDS011;685;47.196;11.880;2023-08-12T00:17:37;2.60;;;1.70;;
1382;SDS011;685;47.196;11.880;2023-08-12T00:20:06;3.60;;;2.17;;
1382;SDS011;685;47.196;11.880;2023-08-12T00:22:37;4.53;;;2.03;;
1382;SDS011;685;47.196;11.880;2023-08-12T00:25:05;2.60;;;1.80;;
1382;SDS011;685;47.196;11.880;2023-08-12T00:27:32;2.90;;;1.70;;
1382;SDS011;685;47.196;11.880;2023-08-12T00:30:00;2.83;;;1.90;;
1382;SDS011;685;47.196;11.880;2023-08-12T00:32:27;2.93;;;2.00;;
1382;SDS011;685;47.196;11.880;2023-08-12T00:34:54;4.80;;;2.20;;
1382;SDS011;685;47.196;11.880;2023-08-12T00:37:21;2.80;;;1.60;;
1382;SDS011;685;47.196;11.880;2023-08-12T00:39:50;2.80;;;1.93;;
1382;SDS011;685;47.196;11.880;2023-08-12T00:42:17;3.33;;;1.93;;
1382;SDS011;685;47.196;11.880;2023-08-12T00:44:44;3.03;;;1.63;;
1382;SDS011;685;47.196;11.880;2023-08-12T00:47:12;3.07;;;1.60;;
1382;SDS011;685;47.196;11.880;2023-08-12T00:49:39;3.27;;;1.93;;
1382;SDS011;685;47.196;11.880;2023-08-12T00:52:08;2.57;;;1.60;;
1382;SDS011;685;47.196;11.880;2023-08-12T00:54:35;2.93;;;1.80;;
1382;SDS011;685;47.196;11.880;2023-08-12T00:57:04;3.13;;;1.83;;
1382;SDS011;685;47.196;11.880;2023-08-12T00:59:32;3.67;;;1.93;;
1382;SDS011;685;47.196;11.880;2023-08-12T01:02:02;2.70;;;1.83;;
1382;SDS011;685;47.196;11.880;2023-08-12T01:04:30;3.20;;;2.00;;
1382;SDS011;685;47.196;11.880;2023-08-12T01:06:57;2.70;;;1.70;;
1382;SDS011;685;47.196;11.880;2023-08-12T01:09:24;2.57;;;1.80;;
1382;SDS011;685;47.196;11.880;2023-08-12T01:11:54;4.07;;;2.37;;
1382;SDS011;685;47.196;11.880;2023-08-12T01:14:24;2.90;;;2.13;;
1382;SDS011;685;47.196;11.880;2023-08-12T01:16:55;2.97;;;1.97;;
1382;SDS011;685;47.196;11.880;2023-08-12T01:19:27;2.83;;;1.60;;
1382;SDS011;685;47.196;11.880;2023-08-12T01:21:58;3.30;;;1.87;;
1382;SDS011;685;47.196;11.880;2023-08-12T01:24:32;3.40;;;1.80;;
1382;SDS011;685;47.196;11.880;2023-08-12T01:27:01;3.67;;;2.50;;
1382;SDS011;685;47.196;11.880;2023-08-12T01:29:29;3.80;;;2.50;;
1382;SDS011;685;47.196;11.880;2023-08-12T01:31:58;3.30;;;1.70;;
1382;SDS011;685;47.196;11.880;2023-08-12T01:34:30;5.60;;;2.47;;
1382;SDS011;685;47.196;11.880;2023-08-12T01:37:00;3.50;;;2.13;;
1382;SDS011;685;47.196;11.880;2023-08-12T01:39:30;3.30;;;2.20;;
1382;SDS011;685;47.196;11.880;2023-08-12T01:41:58;2.60;;;1.73;;
1382;SDS011;685;47.196;11.880;2023-08-12T01:44:25;3.90;;;1.53;;
1382;SDS011;685;47.196;11.880;2023-08-12T01:46:52;3.90;;;1.77;;
1382;SDS011;685;47.196;11.880;2023-08-12T01:49:20;3.03;;;1.80;;
1382;SDS011;685;47.196;11.880;2023-08-12T01:51:48;3.40;;;1.87;;
1382;SDS011;685;47.196;11.880;2023-08-12T01:54:15;2.77;;;1.87;;
1382;SDS011;685;47.196;11.880;2023-08-12T01:56:44;2.60;;;1.70;;
1382;SDS011;685;47.196;11.880;2023-08-12T01:59:11;3.20;;;1.87;;
1382;SDS011;685;47.196;11.880;2023-08-12T02:01:38;2.20;;;1.70;;
1382;SDS011;685;47.196;11.880;2023-08-12T02:04:05;3.13;;;1.80;;
1382;SDS011;685;47.196;11.880;2023-08-12T02:06:33;2.77;;;1.50;;
1382;SDS011;685;47.196;11.880;2023-08-12T02:09:00;2.57;;;1.80;;
1382;SDS011;685;47.196;11.880;2023-08-12T02:11:27;3.50;;;1.77;;
1382;SDS011;685;47.196;11.880;2023-08-12T02:13:56;2.30;;;1.53;;
1382;SDS011;685;47.196;11.880;2023-08-12T02:16:23;2.93;;;1.80;;
1382;SDS011;685;47.196;11.880;2023-08-12T02:18:50;3.60;;;1.87;;
1382;SDS011;685;47.196;11.880;2023-08-12T02:21:17;2.53;;;1.60;;
1382;SDS011;685;47.196;11.880;2023-08-12T02:23:45;2.20;;;1.47;;
1382;SDS011;685;47.196;11.880;2023-08-12T02:26:12;2.40;;;1.13;;
1382;SDS011;685;47.196;11.880;2023-08-12T02:28:39;2.73;;;1.50;;
1382;SDS011;685;47.196;11.880;2023-08-12T02:31:08;4.70;;;2.10;;
1382;SDS011;685;47.196;11.880;2023-08-12T02:33:35;3.47;;;2.00;;
1382;SDS011;685;47.196;11.880;2023-08-12T02:36:02;2.73;;;1.70;;
1382;SDS011;685;47.196;11.880;2023-08-12T02:38:30;2.90;;;1.70;;
1382;SDS011;685;47.196;11.880;2023-08-12T02:40:57;2.67;;;1.67;;
1382;SDS011;685;47.196;11.880;2023-08-12T02:43:24;2.57;;;1.67;;
1382;SDS011;685;47.196;11.880;2023-08-12T02:45:52;3.30;;;1.60;;
1382;SDS011;685;47.196;11.880;2023-08-12T02:48:20;2.87;;;1.63;;
1382;SDS011;685;47.196;11.880;2023-08-12T02:50:48;2.70;;;1.60;;
1382;SDS011;685;47.196;11.880;2023-08-12T02:53:16;2.70;;;1.70;;
1382;SDS011;685;47.196;11.880;2023-08-12T02:55:44;3.10;;;1.80;;
1382;SDS011;685;47.196;11.880;2023-08-12T02:58:11;2.60;;;1.80;;
1382;SDS011;685;47.196;11.880;2023-08-12T03:00:40;2.90;;;2.10;;
1382;SDS011;685;47.196;11.880;2023-08-12T03:03:08;3.67;;;1.97;;
1382;SDS011;685;47.196;11.880;2023-08-12T03:05:37;2.60;;;1.87;;
1382;SDS011;685;47.196;11.880;2023-08-12T03:08:06;2.57;;;1.57;;
1382;SDS011;685;47.196;11.880;2023-08-12T03:10:33;3.90;;;2.23;;
1382;SDS011;685;47.196;11.880;2023-08-12T03:13:01;3.03;;;1.60;;
1382;SDS011;685;47.196;11.880;2023-08-12T03:15:28;5.07;;;1.80;;
1382;SDS011;685;47.196;11.880;2023-08-12T03:17:55;2.40;;;1.60;;
1382;SDS011;685;47.196;11.880;2023-08-12T03:20:23;3.40;;;1.50;;
1382;SDS011;685;47.196;11.880;2023-08-12T03:22:52;2.70;;;1.43;;
1382;SDS011;685;47.196;11.880;2023-08-12T03:25:19;3.00;;;1.70;;
1382;SDS011;685;47.196;11.880;2023-08-12T03:27:47;2.80;;;1.97;;
1382;SDS011;685;47.196;11.880;2023-08-12T03:30:14;2.20;;;1.50;;
1382;SDS011;685;47.196;11.880;2023-08-12T03:32:41;2.53;;;1.57;;
1382;SDS011;685;47.196;11.880;2023-08-12T03:35:09;4.00;;;1.77;;
1382;SDS011;685;47.196;11.880;2023-08-12T03:37:36;3.13;;;1.60;;
1382;SDS011;685;47.196;11.880;2023-08-12T03:40:05;3.13;;;2.03;;
1382;SDS011;685;47.196;11.880;2023-08-12T03:42:33;4.43;;;2.40;;
1382;SDS011;685;47.196;11.880;2023-08-12T03:45:00;2.77;;;1.70;;
1382;SDS011;685;47.196;11.880;2023-08-12T03:47:28;2.53;;;1.90;;
1382;SDS011;685;47.196;11.880;2023-08-12T03:49:55;3.27;;;1.70;;
1382;SDS011;685;47.196;11.880;2023-08-12T03:52:22;2.90;;;1.50;;
1382;SDS011;685;47.196;11.880;2023-08-12T03:54:50;3.17;;;1.80;;
1382;SDS011;685;47.196;11.880;2023-08-12T03:57:19;3.63;;;1.90;;
1382;SDS011;685;47.196;11.880;2023-08-12T03:59:46;3.80;;;2.23;;
1382;SDS011;685;47.196;11.880;2023-08-12T04:02:14;3.57;;;2.17;;
1382;SDS011;685;47.196;11.880;2023-08-12T04:04:41;3.67;;;1.93;;
1382;SDS011;685;47.196;11.880;2023-08-12T04:07:09;2.90;;;2.10;;
1382;SDS011;685;47.196;11.880;2023-08-12T04:09:36;2.67;;;1.63;;
1382;SDS011;685;47.196;11.880;2023-08-12T04:12:03;2.40;;;1.40;;
1382;SDS011;685;47.196;11.880;2023-08-12T04:14:32;2.67;;;2.00;;
1382;SDS011;685;47.196;11.880;2023-08-12T04:16:59;2.77;;;1.90;;
1382;SDS011;685;47.196;11.880;2023-08-12T04:19:26;2.10;;;1.60;;
1382;SDS011;685;47.196;11.880;2023-08-12T04:21:54;3.20;;;1.87;;
1382;SDS011;685;47.196;11.880;2023-08-12T04:24:21;4.67;;;1.77;;
1382;SDS011;685;47.196;11.880;2023-08-12T04:26:48;3.20;;;1.80;;
1382;SDS011;685;47.196;11.880;2023-08-12T04:29:16;3.60;;;1.80;;
1382;SDS011;685;47.196;11.880;2023-08-12T04:31:44;3.80;;;1.73;;
1382;SDS011;685;47.196;11.880;2023-08-12T04:34:12;3.90;;;1.67;;
1382;SDS011;685;47.196;11.880;2023-08-12T04:36:39;2.80;;;1.70;;
1382;SDS011;685;47.196;11.880;2023-08-12T04:39:06;4.70;;;2.37;;
1382;SDS011;685;47.196;11.880;2023-08-12T04:41:33;2.40;;;1.70;;
1382;SDS011;685;47.196;11.880;2023-08-12T04:44:03;3.00;;;1.70;;
1382;SDS011;685;47.196;11.880;2023-08-12T04:46:31;3.30;;;1.57;;
1382;SDS011;685;47.196;11.880;2023-08-12T04:48:59;3.93;;;1.80;;
1382;SDS011;685;47.196;11.880;2023-08-12T04:51:27;3.10;;;1.83;;
1382;SDS011;685;47.196;11.880;2023-08-12T04:53:54;2.87;;;2.10;;
1382;SDS011;685;47.196;11.880;2023-08-12T04:56:21;3.20;;;1.90;;
1382;SDS011;685;47.196;11.880;2023-08-12T04:58:49;2.40;;;1.37;;
1382;SDS011;685;47.196;11.880;2023-08-12T05:01:16;2.70;;;1.97;;
1382;SDS011;685;47.196;11.880;2023-08-12T05:03:43;5.40;;;2.07;;
1382;SDS011;685;47.196;11.880;2023-08-12T05:06:12;3.50;;;1.80;;
1382;SDS011;685;47.196;11.880;2023-08-12T05:08:39;3.33;;;1.90;;
1382;SDS011;685;47.196;11.880;2023-08-12T05:11:07;4.33;;;1.70;;
1382;SDS011;685;47.196;11.880;2023-08-12T05:13:34;3.13;;;1.90;;
1382;SDS011;685;47.196;11.880;2023-08-12T05:16:01;4.03;;;2.17;;
1382;SDS011;685;47.196;11.880;2023-08-12T05:18:28;3.00;;;1.90;;
1382;SDS011;685;47.196;11.880;2023-08-12T05:20:56;3.20;;;1.70;;
1382;SDS011;685;47.196;11.880;2023-08-12T05:23:25;3.73;;;2.13;;
1382;SDS011;685;47.196;11.880;2023-08-12T05:25:52;2.37;;;1.83;;
1382;SDS011;685;47.196;11.880;2023-08-12T05:28:20;3.17;;;1.97;;
1382;SDS011;685;47.196;11.880;2023-08-12T05:30:47;16.13;;;2.57;;
1382;SDS011;685;47.196;11.880;2023-08-12T05:33:15;2.90;;;1.90;;
1382;SDS011;685;47.196;11.880;2023-08-12T05:35:42;3.53;;;1.90;;
1382;SDS011;685;47.196;11.880;2023-08-12T05:38:09;5.90;;;2.10;;
1382;SDS011;685;47.196;11.880;2023-08-12T05:40:38;2.93;;;1.97;;
1382;SDS011;685;47.196;11.880;2023-08-12T05:43:05;4.50;;;2.00;;
1382;SDS011;685;47.196;11.880;2023-08-12T05:45:32;3.50;;;2.43;;
1382;SDS011;685;47.196;11.880;2023-08-12T05:47:59;3.00;;;2.00;;
1382;SDS011;685;47.196;11.880;2023-08-12T05:50:27;2.70;;;2.13;;
1382;SDS011;685;47.196;11.880;2023-08-12T05:52:54;4.40;;;2.13;;
1382;SDS011;685;47.196;11.880;2023-08-12T05:55:21;2.80;;;1.90;;
1382;SDS011;685;47.196;11.880;2023-08-12T05:57:50;3.70;;;2.20;;
1382;SDS011;685;47.196;11.880;2023-08-12T06:00:17;2.40;;;1.60;;
1382;SDS011;685;47.196;11.880;2023-08-12T06:02:44;3.00;;;1.77;;
1382;SDS011;685;47.196;11.880;2023-08-12T06:05:12;3.17;;;2.10;;
1382;SDS011;685;47.196;11.880;2023-08-12T06:07:39;3.00;;;2.00;;
1382;SDS011;685;47.196;11.880;2023-08-12T06:10:06;3.83;;;1.87;;
1382;SDS011;685;47.196;11.880;2023-08-12T06:12:34;4.50;;;2.00;;
1382;SDS011;685;47.196;11.880;2023-08-12T06:15:03;7.63;;;2.40;;
1382;SDS011;685;47.196;11.880;2023-08-12T06:17:30;3.63;;;2.03;;
1382;SDS011;685;47.196;11.880;2023-08-12T06:19:57;3.20;;;1.73;;
1382;SDS011;685;47.196;11.880;2023-08-12T06:22:25;2.63;;;2.00;;
1382;SDS011;685;47.196;11.880;2023-08-12T06:24:52;2.70;;;1.93;;
1382;SDS011;685;47.196;11.880;2023-08-12T06:27:18;4.27;;;1.90;;
1382;SDS011;685;47.196;11.880;2023-08-12T06:29:46;2.90;;;1.80;;
1382;SDS011;685;47.196;11.880;2023-08-12T06:32:14;3.90;;;2.10;;
1382;SDS011;685;47.196;11.880;2023-08-12T06:34:42;3.87;;;2.27;;
1382;SDS011;685;47.196;11.880;2023-08-12T06:37:09;4.63;;;2.43;;
1382;SDS011;685;47.196;11.880;2023-08-12T06:39:36;3.13;;;1.90;;
1382;SDS011;685;47.196;11.880;2023-08-12T06:42:04;3.23;;;2.20;;
1382;SDS011;685;47.196;11.880;2023-08-12T06:44:31;3.67;;;2.60;;
1382;SDS011;685;47.196;11.880;2023-08-12T06:46:58;3.70;;;2.00;;
1382;SDS011;685;47.196;11.880;2023-08-12T06:49:27;4.00;;;2.40;;
1382;SDS011;685;47.196;11.880;2023-08-12T06:51:54;3.70;;;2.20;;
1382;SDS011;685;47.196;11.880;2023-08-12T06:54:21;3.07;;;2.30;;
1382;SDS011;685;47.196;11.880;2023-08-12T06:56:49;3.07;;;2.37;;
1382;SDS011;685;47.196;11.880;2023-08-12T06:59:17;3.50;;;2.40;;
1382;SDS011;685;47.196;11.880;2023-08-12T07:01:44;4.47;;;2.50;;
1382;SDS011;685;47.196;11.880;2023-08-12T07:04:11;3.83;;;2.37;;
1382;SDS011;685;47.196;11.880;2023-08-12T07:06:40;3.50;;;2.33;;
1382;SDS011;685;47.196;11.880;2023-08-12T07:09:07;2.70;;;2.10;;
1382;SDS011;685;47.196;11.880;2023-08-12T07:11:34;3.00;;;2.03;;
1382;SDS011;685;47.196;11.880;2023-08-12T07:14:01;4.93;;;2.53;;
1382;SDS011;685;47.196;11.880;2023-08-12T07:16:29;2.80;;;2.33;;
1382;SDS011;685;47.196;11.880;2023-08-12T07:18:56;3.03;;;2.33;;
1382;SDS011;685;47.196;11.880;2023-08-12T07:21:23;3.50;;;2.20;;
1382;SDS011;685;47.196;11.880;2023-08-12T07:23:52;2.70;;;1.90;;
1382;SDS011;685;47.196;11.880;2023-08-12T07:26:19;3.00;;;2.30;;
1382;SDS011;685;47.196;11.880;2023-08-12T07:28:47;4.27;;;2.53;;
1382;SDS011;685;47.196;11.880;2023-08-12T07:31:14;3.70;;;2.60;;
1382;SDS011;685;47.196;11.880;2023-08-12T07:33:41;3.63;;;2.80;;
1382;SDS011;685;47.196;11.880;2023-08-12T07:36:08;2.67;;;2.03;;
1382;SDS011;685;47.196;11.880;2023-08-12T07:38:35;3.03;;;2.13;;
1382;SDS011;685;47.196;11.880;2023-08-12T07:41:04;3.40;;;2.13;;
1382;SDS011;685;47.196;11.880;2023-08-12T07:43:32;3.23;;;2.00;;
1382;SDS011;685;47.196;11.880;2023-08-12T07:45:59;3.33;;;2.10;;
1382;SDS011;685;47.196;11.880;2023-08-12T07:48:26;3.63;;;2.20;;
1382;SDS011;685;47.196;11.880;2023-08-12T07:50:57;2.53;;;2.10;;
1382;SDS011;685;47.196;11.880;2023-08-12T07:53:24;3.60;;;2.53;;
1382;SDS011;685;47.196;11.880;2023-08-12T07:55:52;4.23;;;2.47;;
1382;SDS011;685;47.196;11.880;2023-08-12T07:58:20;3.17;;;2.10;;
1382;SDS011;685;47.196;11.880;2023-08-12T08:00:48;3.17;;;2.30;;
1382;SDS011;685;47.196;11.880;2023-08-12T08:03:15;3.80;;;2.23;;
1382;SDS011;685;47.196;11.880;2023-08-12T08:05:42;4.40;;;2.03;;
1382;SDS011;685;47.196;11.880;2023-08-12T08:08:10;2.47;;;1.63;;
1382;SDS011;685;47.196;11.880;2023-08-12T08:10:38;3.50;;;2.40;;
1382;SDS011;685;47.196;11.880;2023-08-12T08:13:05;3.20;;;2.20;;
1382;SDS011;685;47.196;11.880;2023-08-12T08:15:34;3.00;;;2.20;;
1382;SDS011;685;47.196;11.880;2023-08-12T08:18:01;3.10;;;2.30;;
1382;SDS011;685;47.196;11.880;2023-08-12T08:20:29;3.30;;;2.13;;
1382;SDS011;685;47.196;11.880;2023-08-12T08:22:56;2.60;;;1.90;;
1382;SDS011;685;47.196;11.880;2023-08-12T08:25:23;3.13;;;2.37;;
1382;SDS011;685;47.196;11.880;2023-08-12T08:27:51;3.40;;;2.23;;
1382;SDS011;685;47.196;11.880;2023-08-12T08:30:18;3.13;;;2.10;;
1382;SDS011;685;47.196;11.880;2023-08-12T08:32:47;4.50;;;2.43;;
1382;SDS011;685;47.196;11.880;2023-08-12T08:35:15;3.60;;;2.80;;
1382;SDS011;685;47.196;11.880;2023-08-12T08:37:42;3.30;;;2.83;;
1382;SDS011;685;47.196;11.880;2023-08-12T08:40:10;3.03;;;2.30;;
1382;SDS011;685;47.196;11.880;2023-08-12T08:42:38;4.30;;;3.90;;
1382;SDS011;685;47.196;11.880;2023-08-12T08:45:07;7.27;;;5.70;;
1382;SDS011;685;47.196;11.880;2023-08-12T08:47:37;4.33;;;2.80;;
1382;SDS011;685;47.196;11.880;2023-08-12T08:50:06;3.13;;;2.40;;
1382;SDS011;685;47.196;11.880;2023-08-12T08:52:33;3.00;;;2.50;;
1382;SDS011;685;47.196;11.880;2023-08-12T08:55:02;3.57;;;2.17;;
1382;SDS011;685;47.196;11.880;2023-08-12T08:57:30;5.00;;;1.93;;
1382;SDS011;685;47.196;11.880;2023-08-12T08:59:57;3.63;;;2.33;;
1382;SDS011;685;47.196;11.880;2023-08-12T09:02:25;2.97;;;2.20;;
1382;SDS011;685;47.196;11.880;2023-08-12T09:04:53;5.40;;;2.30;;
1382;SDS011;685;47.196;11.880;2023-08-12T09:07:21;2.90;;;2.00;;
1382;SDS011;685;47.196;11.880;2023-08-12T09:09:49;2.90;;;2.10;;
1382;SDS011;685;47.196;11.880;2023-08-12T09:12:18;3.23;;;2.20;;
1382;SDS011;685;47.196;11.880;2023-08-12T09:14:45;2.70;;;2.00;;
1382;SDS011;685;47.196;11.880;2023-08-12T09:17:14;3.17;;;2.10;;
1382;SDS011;685;47.196;11.880;2023-08-12T09:19:41;3.47;;;2.30;;
1382;SDS011;685;47.196;11.880;2023-08-12T09:22:08;3.70;;;2.60;;
1382;SDS011;685;47.196;11.880;2023-08-12T09:24:37;5.97;;;2.40;;
1382;SDS011;685;47.196;11.880;2023-08-12T09:27:04;4.10;;;2.23;;
1382;SDS011;685;47.196;11.880;2023-08-12T09:29:32;3.57;;;2.33;;
1382;SDS011;685;47.196;11.880;2023-08-12T09:32:09;5.37;;;2.80;;
1382;SDS011;685;47.196;11.880;2023-08-12T09:34:37;3.10;;;2.13;;
1382;SDS011;685;47.196;11.880;2023-08-12T09:37:04;3.20;;;2.27;;
1382;SDS011;685;47.196;11.880;2023-08-12T09:39:31;3.30;;;2.73;;
1382;SDS011;685;47.196;11.880;2023-08-12T09:42:00;2.70;;;2.07;;
1382;SDS011;685;47.196;11.880;2023-08-12T09:44:29;3.70;;;2.10;;
1382;SDS011;685;47.196;11.880;2023-08-12T09:46:56;3.80;;;2.23;;
1382;SDS011;685;47.196;11.880;2023-08-12T09:49:24;4.17;;;3.07;;
1382;SDS011;685;47.196;11.880;2023-08-12T09:51:53;4.17;;;2.40;;
1382;SDS011;685;47.196;11.880;2023-08-12T09:54:20;3.70;;;3.17;;
1382;SDS011;685;47.196;11.880;2023-08-12T09:56:50;4.60;;;3.00;;
1382;SDS011;685;47.196;11.880;2023-08-12T09:59:21;3.27;;;2.87;;
1382;SDS011;685;47.196;11.880;2023-08-12T10:01:49;3.10;;;2.50;;
1382;SDS011;685;47.196;11.880;2023-08-12T10:04:17;3.90;;;2.47;;
1382;SDS011;685;47.196;11.880;2023-08-12T10:06:45;3.37;;;2.53;;
1382;SDS011;685;47.196;11.880;2023-08-12T10:09:14;3.17;;;2.53;;
1382;SDS011;685;47.196;11.880;2023-08-12T10:11:43;2.90;;;2.30;;
1382;SDS011;685;47.196;11.880;2023-08-12T10:14:11;3.90;;;2.50;;
1382;SDS011;685;47.196;11.880;2023-08-12T10:16:41;2.93;;;2.30;;
1382;SDS011;685;47.196;11.880;2023-08-12T10:19:10;3.67;;;2.80;;
1382;SDS011;685;47.196;11.880;2023-08-12T10:21:38;2.70;;;2.43;;
1382;SDS011;685;47.196;11.880;2023-08-12T10:24:06;3.47;;;2.47;;
1382;SDS011;685;47.196;11.880;2023-08-12T10:26:35;3.40;;;2.60;;
1382;SDS011;685;47.196;11.880;2023-08-12T10:29:03;3.17;;;2.50;;
1382;SDS011;685;47.196;11.880;2023-08-12T10:31:30;3.97;;;2.40;;
1382;SDS011;685;47.196;11.880;2023-08-12T10:34:00;3.47;;;3.00;;
1382;SDS011;685;47.196;11.880;2023-08-12T10:36:28;2.90;;;2.20;;
1382;SDS011;685;47.196;11.880;2023-08-12T10:38:56;2.90;;;2.03;;
1382;SDS011;685;47.196;11.880;2023-08-12T10:41:24;5.43;;;3.00;;
1382;SDS011;685;47.196;11.880;2023-08-12T10:43:53;5.10;;;3.47;;
1382;SDS011;685;47.196;11.880;2023-08-12T10:46:21;5.63;;;3.20;;
1382;SDS011;685;47.196;11.880;2023-08-12T10:48:56;3.53;;;2.80;;
1382;SDS011;685;47.196;11.880;2023-08-12T10:54:18;6.20;;;2.67;;
1382;SDS011;685;47.196;11.880;2023-08-12T10:59:52;3.30;;;2.50;;
1382;SDS011;685;47.196;11.880;2023-08-12T11:02:20;3.40;;;2.37;;
1382;SDS011;685;47.196;11.880;2023-08-12T11:04:49;2.70;;;2.20;;
1382;SDS011;685;47.196;11.880;2023-08-12T11:07:17;2.77;;;2.33;;
1382;SDS011;685;47.196;11.880;2023-08-12T11:09:48;3.07;;;2.77;;
1382;SDS011;685;47.196;11.880;2023-08-12T11:12:18;2.90;;;2.50;;
1382;SDS011;685;47.196;11.880;2023-08-12T11:14:49;3.20;;;2.40;;
1382;SDS011;685;47.196;11.880;2023-08-12T11:17:16;4.80;;;2.60;;
1382;SDS011;685;47.196;11.880;2023-08-12T11:19:43;3.37;;;2.50;;
1382;SDS011;685;47.196;11.880;2023-08-12T11:22:11;3.23;;;2.37;;
1382;SDS011;685;47.196;11.880;2023-08-12T11:24:40;3.20;;;2.23;;
1382;SDS011;685;47.196;11.880;2023-08-12T11:27:10;3.10;;;2.43;;
1382;SDS011;685;47.196;11.880;2023-08-12T11:29:37;4.57;;;2.53;;
1382;SDS011;685;47.196;11.880;2023-08-12T11:32:05;4.90;;;2.67;;
1382;SDS011;685;47.196;11.880;2023-08-12T11:34:32;3.80;;;2.93;;
1382;SDS011;685;47.196;11.880;2023-08-12T11:37:00;3.57;;;2.90;;
1382;SDS011;685;47.196;11.880;2023-08-12T11:39:27;3.53;;;2.73;;
1382;SDS011;685;47.196;11.880;2023-08-12T11:41:55;3.43;;;2.73;;
1382;SDS011;685;47.196;11.880;2023-08-12T11:44:24;3.03;;;2.60;;
1382;SDS011;685;47.196;11.880;2023-08-12T11:46:52;2.90;;;2.40;;
1382;SDS011;685;47.196;11.880;2023-08-12T11:49:19;5.20;;;3.03;;
1382;SDS011;685;47.196;11.880;2023-08-12T11:51:46;5.70;;;2.70;;
1382;SDS011;685;47.196;11.880;2023-08-12T11:54:15;2.93;;;2.63;;
1382;SDS011;685;47.196;11.880;2023-08-12T11:56:43;3.47;;;2.87;;
1382;SDS011;685;47.196;11.880;2023-08-12T11:59:10;3.20;;;2.80;;
1382;SDS011;685;47.196;11.880;2023-08-12T12:01:39;3.23;;;2.93;;
1382;SDS011;685;47.196;11.880;2023-08-12T12:04:06;3.67;;;2.97;;
1382;SDS011;685;47.196;11.880;2023-08-12T12:06:35;4.17;;;3.87;;
1382;SDS011;685;47.196;11.880;2023-08-12T12:09:03;3.13;;;2.83;;
1382;SDS011;685;47.196;11.880;2023-08-12T12:11:31;3.30;;;3.00;;
1382;SDS011;685;47.196;11.880;2023-08-12T12:14:00;5.20;;;2.83;;
1382;SDS011;685;47.196;11.880;2023-08-12T12:16:36;3.93;;;3.20;;
1382;SDS011;685;47.196;11.880;2023-08-12T12:19:05;4.53;;;3.23;;
1382;SDS011;685;47.196;11.880;2023-08-12T12:21:38;3.27;;;2.97;;
1382;SDS011;685;47.196;11.880;2023-08-12T12:24:06;3.37;;;2.80;;
1382;SDS011;685;47.196;11.880;2023-08-12T12:26:34;3.70;;;3.30;;
1382;SDS011;685;47.196;11.880;2023-08-12T12:29:01;5.80;;;3.17;;
1382;SDS011;685;47.196;11.880;2023-08-12T12:31:31;5.33;;;3.40;;
1382;SDS011;685;47.196;11.880;2023-08-12T12:33:59;4.33;;;2.93;;
1382;SDS011;685;47.196;11.880;2023-08-12T12:36:28;4.60;;;3.27;;
1382;SDS011;685;47.196;11.880;2023-08-12T12:38:55;3.70;;;2.90;;
1382;SDS011;685;47.196;11.880;2023-08-12T12:41:22;3.90;;;3.20;;
1382;SDS011;685;47.196;11.880;2023-08-12T12:43:50;3.90;;;3.20;;
1382;SDS011;685;47.196;11.880;2023-08-12T12:46:17;3.50;;;3.20;;
1382;SDS011;685;47.196;11.880;2023-08-12T12:48:44;3.60;;;3.20;;
1382;SDS011;685;47.196;11.880;2023-08-12T12:51:12;5.23;;;3.53;;
1382;SDS011;685;47.196;11.880;2023-08-12T12:53:40;4.00;;;3.20;;
1382;SDS011;685;47.196;11.880;2023-08-12T12:56:08;3.80;;;3.30;;
1382;SDS011;685;47.196;11.880;2023-08-12T12:58:36;4.10;;;3.00;;
1382;SDS011;685;47.196;11.880;2023-08-12T13:01:04;4.10;;;3.70;;
1382;SDS011;685;47.196;11.880;2023-08-12T13:03:32;4.10;;;3.33;;
1382;SDS011;685;47.196;11.880;2023-08-12T13:05:59;5.50;;;3.60;;
1382;SDS011;685;47.196;11.880;2023-08-12T13:08:28;3.90;;;3.23;;
1382;SDS011;685;47.196;11.880;2023-08-12T13:10:57;4.00;;;3.50;;
1382;SDS011;685;47.196;11.880;2023-08-12T13:13:25;4.10;;;3.43;;
1382;SDS011;685;47.196;11.880;2023-08-12T13:15:52;6.07;;;4.23;;
1382;SDS011;685;47.196;11.880;2023-08-12T13:18:19;4.00;;;3.03;;
1382;SDS011;685;47.196;11.880;2023-08-12T13:20:46;6.90;;;3.70;;
1382;SDS011;685;47.196;11.880;2023-08-12T13:23:14;3.50;;;3.03;;
1382;SDS011;685;47.196;11.880;2023-08-12T13:25:41;4.57;;;3.70;;
1382;SDS011;685;47.196;11.880;2023-08-12T13:28:10;4.10;;;3.03;;
1382;SDS011;685;47.196;11.880;2023-08-12T13:30:37;4.90;;;4.10;;
1382;SDS011;685;47.196;11.880;2023-08-12T13:33:04;4.10;;;3.63;;
1382;SDS011;685;47.196;11.880;2023-08-12T13:35:31;4.57;;;4.17;;
1382;SDS011;685;47.196;11.880;2023-08-12T13:37:59;4.20;;;3.80;;
1382;SDS011;685;47.196;11.880;2023-08-12T13:40:26;9.77;;;4.60;;
1382;SDS011;685;47.196;11.880;2023-08-12T13:42:53;3.87;;;3.57;;
1382;SDS011;685;47.196;11.880;2023-08-12T13:45:22;4.17;;;3.77;;
1382;SDS011;685;47.196;11.880;2023-08-12T13:47:49;4.07;;;3.67;;
1382;SDS011;685;47.196;11.880;2023-08-12T13:50:17;5.13;;;3.73;;
1382;SDS011;685;47.196;11.880;2023-08-12T13:52:45;4.23;;;3.30;;
1382;SDS011;685;47.196;11.880;2023-08-12T13:55:14;4.20;;;3.60;;
1382;SDS011;685;47.196;11.880;2023-08-12T13:57:41;4.27;;;3.87;;
1382;SDS011;685;47.196;11.880;2023-08-12T14:00:08;4.97;;;3.73;;
1382;SDS011;685;47.196;11.880;2023-08-12T14:02:39;5.17;;;4.40;;
1382;SDS011;685;47.196;11.880;2023-08-12T14:05:07;4.33;;;3.93;;
1382;SDS011;685;47.196;11.880;2023-08-12T14:07:35;4.27;;;3.83;;
1382;SDS011;685;47.196;11.880;2023-08-12T14:10:03;4.10;;;3.70;;
1382;SDS011;685;47.196;11.880;2023-08-12T14:12:30;7.33;;;3.80;;
1382;SDS011;685;47.196;11.880;2023-08-12T14:14:57;4.63;;;3.83;;
1382;SDS011;685;47.196;11.880;2023-08-12T14:17:25;4.40;;;3.87;;
1382;SDS011;685;47.196;11.880;2023-08-12T14:19:53;5.13;;;3.57;;
1382;SDS011;685;47.196;11.880;2023-08-12T14:22:21;4.03;;;3.60;;
1382;SDS011;685;47.196;11.880;2023-08-12T14:24:48;4.77;;;3.90;;
1382;SDS011;685;47.196;11.880;2023-08-12T14:27:15;4.20;;;3.80;;
1382;SDS011;685;47.196;11.880;2023-08-12T14:29:43;4.23;;;3.83;;
1382;SDS011;685;47.196;11.880;2023-08-12T14:32:10;4.70;;;3.63;;
1382;SDS011;685;47.196;11.880;2023-08-12T14:34:38;4.20;;;3.57;;
1382;SDS011;685;47.196;11.880;2023-08-12T14:37:06;4.27;;;3.50;;
1382;SDS011;685;47.196;11.880;2023-08-12T14:39:33;4.53;;;4.10;;
1382;SDS011;685;47.196;11.880;2023-08-12T14:42:01;4.30;;;3.70;;
1382;SDS011;685;47.196;11.880;2023-08-12T14:44:29;7.17;;;3.40;;
1382;SDS011;685;47.196;11.880;2023-08-12T14:46:57;4.93;;;3.57;;
1382;SDS011;685;47.196;11.880;2023-08-12T14:49:24;5.67;;;3.97;;
1382;SDS011;685;47.196;11.880;2023-08-12T14:51:54;4.40;;;4.00;;
1382;SDS011;685;47.196;11.880;2023-08-12T14:54:23;4.60;;;3.97;;
1382;SDS011;685;47.196;11.880;2023-08-12T14:56:50;4.53;;;4.13;;
1382;SDS011;685;47.196;11.880;2023-08-12T14:59:17;4.87;;;4.47;;
1382;SDS011;685;47.196;11.880;2023-08-12T15:01:45;4.77;;;4.30;;
1382;SDS011;685;47.196;11.880;2023-08-12T15:04:12;4.23;;;3.83;;
1382;SDS011;685;47.196;11.880;2023-08-12T15:06:39;5.23;;;4.30;;
1382;SDS011;685;47.196;11.880;2023-08-12T15:09:06;4.33;;;3.93;;
1382;SDS011;685;47.196;11.880;2023-08-12T15:11:35;5.03;;;3.77;;
1382;SDS011;685;47.196;11.880;2023-08-12T15:14:03;6.37;;;4.00;;
1382;SDS011;685;47.196;11.880;2023-08-12T15:16:30;6.50;;;4.23;;
1382;SDS011;685;47.196;11.880;2023-08-12T15:18:57;5.87;;;3.30;;
1382;SDS011;685;47.196;11.880;2023-08-12T15:21:25;4.70;;;4.10;;
1382;SDS011;685;47.196;11.880;2023-08-12T15:23:52;4.20;;;3.37;;